createdAt,value
2023-09-30T06:59:24.068Z,12.10
2023-09-30T07:00:25.142Z,12.13
2023-09-30T07:01:25.242Z,12.16
2023-09-30T07:02:25.311Z,12.20
2023-09-30T07:03:27.401Z,12.27
2023-09-30T07:04:25.533Z,12.31
2023-09-30T07:05:25.511Z,12.34
2023-09-30T07:06:25.640Z,12.38
2023-09-30T07:07:25.663Z,12.46
2023-09-30T07:08:25.769Z,12.50
2023-09-30T07:09:25.850Z,12.52
2023-09-30T07:10:25.923Z,12.53
2023-09-30T07:11:26.009Z,12.59
2023-09-30T07:12:26.120Z,12.62
2023-09-30T07:13:26.198Z,12.64
2023-09-30T07:14:26.275Z,12.68
2023-09-30T07:15:26.388Z,12.71
2023-09-30T07:16:26.609Z,12.78
2023-09-30T07:17:26.513Z,12.86
2023-09-30T07:18:26.713Z,12.86
2023-09-30T07:19:26.661Z,12.92
2023-09-30T07:20:26.757Z,12.90
2023-09-30T07:21:26.887Z,12.95
2023-09-30T07:22:35.699Z,13.03
2023-09-30T07:23:27.000Z,13.04
2023-09-30T07:24:27.113Z,13.08
2023-09-30T07:25:27.190Z,13.10
2023-09-30T07:26:27.232Z,13.15
2023-09-30T07:27:28.747Z,13.17
2023-09-30T07:28:27.375Z,13.25
2023-09-30T07:29:27.449Z,13.30
2023-09-30T07:30:27.605Z,13.36
2023-09-30T07:31:27.635Z,13.38
2023-09-30T07:32:27.708Z,13.38
2023-09-30T07:33:27.778Z,13.42
2023-09-30T07:34:27.916Z,13.42
2023-09-30T07:35:27.930Z,13.45
2023-09-30T07:36:28.068Z,13.51
2023-09-30T07:37:28.134Z,13.57
2023-09-30T07:38:28.175Z,13.64
2023-09-30T07:39:28.273Z,13.67
2023-09-30T07:40:28.327Z,13.69
2023-09-30T07:41:28.425Z,13.71
2023-09-30T07:42:28.565Z,13.77
2023-09-30T07:43:28.534Z,13.81
2023-09-30T07:44:28.612Z,13.84
2023-09-30T07:45:28.798Z,13.95
2023-09-30T07:46:28.807Z,13.95
2023-09-30T07:47:28.834Z,13.92
2023-09-30T07:48:28.945Z,13.96
2023-09-30T07:49:29.012Z,13.99
2023-09-30T07:50:29.091Z,14.06
2023-09-30T07:51:29.192Z,14.10
2023-09-30T07:52:29.244Z,14.14
2023-09-30T07:53:29.368Z,14.22
2023-09-30T07:54:31.787Z,14.25
2023-09-30T07:55:29.482Z,14.27
2023-09-30T07:56:29.572Z,14.27
2023-09-30T07:57:29.667Z,14.24
2023-09-30T07:58:29.747Z,14.27
2023-09-30T07:59:29.873Z,14.35
2023-09-30T08:00:29.956Z,14.40
2023-09-30T08:01:30.006Z,14.39
2023-09-30T08:02:30.106Z,14.29
2023-09-30T08:03:30.241Z,14.35
2023-09-30T08:04:30.329Z,14.40
2023-09-30T08:05:30.322Z,14.46
2023-09-30T08:06:30.452Z,14.55
2023-09-30T08:07:30.469Z,14.62
2023-09-30T08:08:30.575Z,14.65
2023-09-30T08:09:30.640Z,14.70
2023-09-30T08:10:30.704Z,14.77
2023-09-30T08:11:30.777Z,14.80
2023-09-30T08:12:30.895Z,14.81
2023-09-30T08:13:30.981Z,14.89
2023-09-30T08:14:31.031Z,14.96
2023-09-30T08:15:31.159Z,14.98
2023-09-30T08:16:31.204Z,14.95
2023-09-30T08:17:31.267Z,15.03
2023-09-30T08:18:31.340Z,15.09
2023-09-30T08:19:31.372Z,15.19
2023-09-30T08:20:31.459Z,15.19
2023-09-30T08:21:31.581Z,15.20
2023-09-30T08:22:31.613Z,15.25
2023-09-30T08:23:31.724Z,15.32
2023-09-30T08:24:31.822Z,15.44
2023-09-30T08:25:31.897Z,15.54
2023-09-30T08:26:31.946Z,15.62
2023-09-30T08:27:32.042Z,15.80
2023-09-30T08:28:32.101Z,15.82
2023-09-30T08:29:32.187Z,15.89
2023-09-30T08:30:32.274Z,15.96
2023-09-30T08:31:32.400Z,16.01
2023-09-30T08:32:32.422Z,16.05
2023-09-30T08:33:32.540Z,16.08
2023-09-30T08:34:32.581Z,16.12
2023-09-30T08:35:32.633Z,16.23
2023-09-30T08:36:32.812Z,16.49
2023-09-30T08:37:32.946Z,16.73
2023-09-30T08:38:32.868Z,16.96
2023-09-30T08:39:33.040Z,17.07
2023-09-30T08:40:33.058Z,17.12
2023-09-30T08:41:33.251Z,17.04
2023-09-30T08:42:33.222Z,17.08
2023-09-30T08:43:33.315Z,17.00
2023-09-30T08:44:33.727Z,16.86
2023-09-30T08:45:33.540Z,16.73
2023-09-30T08:46:33.616Z,16.75
2023-09-30T08:47:33.603Z,17.01
2023-09-30T08:48:33.721Z,17.15
2023-09-30T08:49:33.857Z,17.71
2023-09-30T08:50:33.829Z,17.79
2023-09-30T08:51:33.926Z,18.03
2023-09-30T08:52:34.900Z,18.45
2023-09-30T08:53:34.051Z,18.88
2023-09-30T08:54:34.214Z,18.82
2023-09-30T08:55:34.215Z,19.19
2023-09-30T08:56:34.285Z,19.28
2023-09-30T08:57:34.418Z,19.48
2023-09-30T08:58:34.446Z,19.58
2023-09-30T08:59:34.579Z,19.58
2023-09-30T09:00:34.692Z,19.71
2023-09-30T09:01:34.758Z,19.98
2023-09-30T09:02:34.867Z,20.01
2023-09-30T09:03:34.933Z,19.22
2023-09-30T09:04:35.029Z,18.76
2023-09-30T09:05:35.064Z,19.16
2023-09-30T09:06:35.174Z,19.51
2023-09-30T09:07:35.226Z,19.74
2023-09-30T09:08:35.300Z,19.54
2023-09-30T09:09:35.432Z,18.98
2023-09-30T09:10:35.491Z,18.82
2023-09-30T09:11:35.536Z,19.18
2023-09-30T09:12:35.662Z,19.66
2023-09-30T09:13:35.696Z,19.74
2023-09-30T09:14:35.777Z,19.21
2023-09-30T09:15:36.059Z,19.23
2023-09-30T09:16:35.981Z,19.16
2023-09-30T09:17:35.975Z,19.10
2023-09-30T09:18:36.080Z,19.22
2023-09-30T09:19:36.142Z,19.56
2023-09-30T09:20:36.985Z,19.69
2023-09-30T09:21:36.313Z,20.02
2023-09-30T09:22:36.343Z,20.33
2023-09-30T09:23:36.440Z,20.17
2023-09-30T09:24:36.575Z,20.43
2023-09-30T09:25:36.643Z,20.39
2023-09-30T09:26:36.680Z,20.73
2023-09-30T09:27:36.814Z,20.08
2023-09-30T09:28:36.836Z,20.41
2023-09-30T09:29:36.907Z,20.26
2023-09-30T09:30:37.029Z,20.41
2023-09-30T09:31:37.159Z,20.41
2023-09-30T09:32:37.208Z,20.55
2023-09-30T09:33:37.291Z,20.74
2023-09-30T09:34:37.341Z,21.25
2023-09-30T09:35:37.473Z,21.13
2023-09-30T09:36:37.520Z,20.67
2023-09-30T09:37:37.599Z,20.16
2023-09-30T09:38:37.669Z,20.13
2023-09-30T09:39:37.802Z,20.16
2023-09-30T09:40:37.810Z,20.35
2023-09-30T09:41:37.901Z,20.85
2023-09-30T09:42:38.286Z,21.44
2023-09-30T09:43:38.052Z,21.64
2023-09-30T09:44:38.121Z,21.62
2023-09-30T09:45:38.226Z,21.99
2023-09-30T09:46:38.333Z,21.92
2023-09-30T09:47:38.429Z,21.68
2023-09-30T09:48:38.494Z,22.09
2023-09-30T09:49:38.538Z,21.92
2023-09-30T09:50:38.622Z,22.24
2023-09-30T09:51:38.793Z,21.91
2023-09-30T09:52:38.896Z,21.22
2023-09-30T09:53:40.318Z,20.80
2023-09-30T09:54:38.956Z,21.22
2023-09-30T09:55:39.022Z,21.72
2023-09-30T09:56:39.103Z,21.83
2023-09-30T09:57:39.220Z,21.04
2023-09-30T09:58:39.247Z,20.06
2023-09-30T09:59:39.315Z,20.94
2023-09-30T10:00:39.494Z,21.47
2023-09-30T10:01:39.504Z,20.84
2023-09-30T10:02:39.659Z,21.22
2023-09-30T10:03:39.815Z,21.49
2023-09-30T10:04:39.709Z,21.67
2023-09-30T10:05:39.818Z,21.77
2023-09-30T10:06:39.983Z,22.39
2023-09-30T10:07:39.995Z,22.95
2023-09-30T10:08:40.088Z,22.22
2023-09-30T10:09:40.198Z,21.62
2023-09-30T10:10:40.356Z,21.56
2023-09-30T10:11:40.351Z,21.86
2023-09-30T10:12:40.569Z,22.09
2023-09-30T10:13:40.518Z,22.40
2023-09-30T10:14:40.607Z,22.45
2023-09-30T10:15:40.738Z,21.83
2023-09-30T10:16:40.784Z,20.98
2023-09-30T10:17:40.838Z,21.14
2023-09-30T10:18:40.975Z,21.19
2023-09-30T10:19:41.010Z,21.10
2023-09-30T10:20:41.103Z,20.47
2023-09-30T10:21:41.266Z,20.38
2023-09-30T10:22:41.270Z,20.14
2023-09-30T10:23:41.358Z,21.22
2023-09-30T10:24:41.459Z,21.72
2023-09-30T10:25:41.518Z,21.54
2023-09-30T10:26:41.586Z,20.97
2023-09-30T10:27:41.670Z,20.21
2023-09-30T10:28:41.785Z,19.40
2023-09-30T10:29:41.831Z,19.07
2023-09-30T10:30:42.078Z,18.50
2023-09-30T10:31:42.025Z,18.25
2023-09-30T10:32:42.094Z,18.21
2023-09-30T10:33:42.223Z,18.30
2023-09-30T10:34:42.255Z,18.85
2023-09-30T10:35:42.333Z,20.18
2023-09-30T10:36:42.474Z,21.25
2023-09-30T10:37:42.486Z,21.98
2023-09-30T10:38:42.598Z,20.94
2023-09-30T10:39:42.737Z,20.31
2023-09-30T10:40:42.731Z,19.51
2023-09-30T10:41:42.836Z,19.19
2023-09-30T10:42:42.973Z,19.43
2023-09-30T10:43:43.039Z,19.23
2023-09-30T10:44:43.077Z,18.88
2023-09-30T10:45:43.266Z,18.67
2023-09-30T10:46:43.340Z,18.54
2023-09-30T10:47:43.395Z,18.66
2023-09-30T10:48:43.438Z,19.59
2023-09-30T10:49:43.482Z,19.31
2023-09-30T10:50:44.458Z,19.37
2023-09-30T10:51:43.725Z,19.02
2023-09-30T10:52:43.747Z,19.31
2023-09-30T10:53:43.821Z,19.91
2023-09-30T10:54:43.906Z,19.48
2023-09-30T10:55:43.957Z,20.24
2023-09-30T10:56:44.018Z,21.13
2023-09-30T10:57:44.112Z,21.67
2023-09-30T10:58:44.187Z,21.86
2023-09-30T10:59:44.260Z,22.21
2023-09-30T11:00:44.421Z,22.76
2023-09-30T11:01:44.505Z,22.58
2023-09-30T11:02:44.632Z,22.86
2023-09-30T11:03:44.683Z,23.27
2023-09-30T11:04:44.805Z,23.66
2023-09-30T11:06:44.801Z,20.89
2023-09-30T11:07:44.835Z,20.32
2023-09-30T11:08:44.923Z,19.88
2023-09-30T11:09:45.122Z,19.59
2023-09-30T11:10:45.128Z,20.01
2023-09-30T11:11:45.184Z,20.06
2023-09-30T11:12:45.352Z,19.62
2023-09-30T11:13:45.382Z,19.55
2023-09-30T11:14:45.485Z,19.43
2023-09-30T11:15:45.584Z,19.11
2023-09-30T11:16:45.678Z,18.94
2023-09-30T11:17:45.726Z,19.92
2023-09-30T11:18:45.938Z,20.70
2023-09-30T11:19:45.889Z,21.34
2023-09-30T11:20:45.948Z,21.12
2023-09-30T11:21:46.089Z,21.28
2023-09-30T11:22:46.110Z,21.65
2023-09-30T11:23:46.170Z,22.21
2023-09-30T11:24:46.288Z,22.47
2023-09-30T11:25:46.327Z,22.70
2023-09-30T11:26:46.458Z,22.12
2023-09-30T11:27:46.535Z,21.67
2023-09-30T11:28:46.565Z,20.98
2023-09-30T11:29:46.691Z,20.33
2023-09-30T11:30:46.864Z,20.13
2023-09-30T11:31:46.948Z,20.05
2023-09-30T11:32:46.936Z,19.95
2023-09-30T11:33:47.018Z,19.99
2023-09-30T11:34:47.056Z,20.01
2023-09-30T11:35:47.128Z,19.81
2023-09-30T11:36:47.287Z,19.76
2023-09-30T11:37:47.324Z,19.80
2023-09-30T11:38:47.415Z,19.86
2023-09-30T11:39:47.494Z,19.77
2023-09-30T11:40:47.560Z,19.66
2023-09-30T11:41:47.652Z,19.77
2023-09-30T11:42:47.760Z,19.84
2023-09-30T11:43:47.792Z,20.05
2023-09-30T11:44:47.887Z,20.26
2023-09-30T11:45:48.047Z,20.47
2023-09-30T11:46:48.123Z,20.38
2023-09-30T11:47:48.277Z,20.52
2023-09-30T11:48:48.235Z,20.21
2023-09-30T11:49:48.306Z,19.98
2023-09-30T11:50:48.428Z,19.99
2023-09-30T11:51:48.536Z,20.33
2023-09-30T11:52:48.572Z,20.58
2023-09-30T11:53:48.643Z,20.70
2023-09-30T11:54:48.796Z,20.70
2023-09-30T11:55:48.806Z,20.85
2023-09-30T11:56:48.906Z,20.91
2023-09-30T11:57:48.965Z,20.94
2023-09-30T11:58:49.056Z,20.99
2023-09-30T11:59:49.140Z,21.22
2023-09-30T12:00:49.336Z,21.21
2023-09-30T12:01:58.989Z,21.21
2023-09-30T12:02:49.495Z,21.16
2023-09-30T12:03:49.486Z,21.16
2023-09-30T12:04:49.672Z,21.01
2023-09-30T12:05:49.632Z,21.07
2023-09-30T12:06:49.774Z,20.92
2023-09-30T12:07:49.768Z,20.89
2023-09-30T12:08:49.856Z,20.92
2023-09-30T12:09:49.961Z,21.06
2023-09-30T12:10:50.085Z,20.84
2023-09-30T12:11:50.212Z,20.72
2023-09-30T12:12:50.269Z,20.41
2023-09-30T12:13:50.283Z,20.11
2023-09-30T12:14:50.349Z,20.02
2023-09-30T12:15:50.481Z,20.16
2023-09-30T12:16:51.584Z,20.43
2023-09-30T12:17:50.718Z,20.64
2023-09-30T12:18:50.813Z,20.76
2023-09-30T12:19:50.856Z,20.76
2023-09-30T12:20:50.940Z,20.55
2023-09-30T12:21:51.051Z,20.77
2023-09-30T12:22:51.101Z,21.03
2023-09-30T12:23:51.206Z,21.25
2023-09-30T12:24:51.344Z,20.98
2023-09-30T12:25:59.019Z,21.29
2023-09-30T12:26:51.454Z,21.75
2023-09-30T12:27:51.573Z,22.15
2023-09-30T12:28:51.617Z,22.43
2023-09-30T12:29:51.697Z,22.39
2023-09-30T12:30:51.864Z,22.80
2023-09-30T12:31:53.798Z,22.83
2023-09-30T12:32:52.011Z,22.91
2023-09-30T12:33:52.196Z,23.02
2023-09-30T12:34:52.359Z,23.00
2023-09-30T12:35:52.257Z,22.94
2023-09-30T12:36:52.409Z,22.58
2023-09-30T12:37:52.391Z,22.45
2023-09-30T12:38:52.513Z,22.25
2023-09-30T12:39:52.640Z,21.88
2023-09-30T12:40:52.644Z,21.38
2023-09-30T12:41:52.756Z,21.01
2023-09-30T12:42:52.900Z,21.01
2023-09-30T12:43:52.915Z,20.92
2023-09-30T12:44:53.006Z,20.97
2023-09-30T12:45:53.166Z,20.82
2023-09-30T12:46:53.259Z,20.61
2023-09-30T12:47:53.388Z,20.57
2023-09-30T12:48:53.401Z,20.52
2023-09-30T12:49:53.451Z,20.54
2023-09-30T12:50:53.556Z,20.66
2023-09-30T12:51:53.670Z,20.74
2023-09-30T12:52:53.779Z,20.72
2023-09-30T12:53:53.807Z,20.64
2023-09-30T12:54:54.006Z,20.74
2023-09-30T12:55:53.979Z,20.79
2023-09-30T12:56:54.068Z,20.77
2023-09-30T12:57:54.187Z,20.87
2023-09-30T12:58:54.237Z,20.82
2023-09-30T12:59:54.306Z,20.72
2023-09-30T13:00:54.785Z,20.67
2023-09-30T13:01:54.530Z,20.74
2023-09-30T13:02:54.569Z,20.85
2023-09-30T13:03:54.673Z,20.91
2023-09-30T13:04:54.724Z,20.67
2023-09-30T13:05:54.767Z,20.42
2023-09-30T13:06:54.932Z,20.11
2023-09-30T13:07:54.927Z,20.10
2023-09-30T13:08:55.063Z,20.17
2023-09-30T13:09:55.148Z,20.11
2023-09-30T13:10:55.242Z,20.21
2023-09-30T13:11:55.290Z,20.35
2023-09-30T13:12:55.432Z,20.47
2023-09-30T13:13:55.470Z,20.26
2023-09-30T13:14:55.563Z,20.11
2023-09-30T13:15:55.777Z,20.14
2023-09-30T13:16:55.743Z,20.20
2023-09-30T13:17:55.829Z,20.38
2023-09-30T13:18:55.989Z,20.55
2023-09-30T13:19:55.923Z,20.54
2023-09-30T13:20:56.026Z,20.38
2023-09-30T13:21:56.109Z,20.38
2023-09-30T13:22:56.180Z,20.55
2023-09-30T13:23:56.311Z,20.61
2023-09-30T13:24:56.374Z,20.79
2023-09-30T13:25:56.409Z,20.58
2023-09-30T13:26:56.870Z,20.99
2023-09-30T13:27:56.603Z,21.64
2023-09-30T13:28:56.857Z,22.68
2023-09-30T13:29:57.124Z,23.04
2023-09-30T13:30:56.912Z,23.50
2023-09-30T13:31:56.928Z,23.47
2023-09-30T13:32:57.000Z,23.83
2023-09-30T13:33:57.105Z,23.93
2023-09-30T13:34:57.152Z,24.13
2023-09-30T13:35:57.293Z,24.28
2023-09-30T13:36:57.338Z,24.35
2023-09-30T13:37:57.435Z,24.62
2023-09-30T13:38:57.829Z,24.15
2023-09-30T13:39:57.580Z,23.61
2023-09-30T13:40:57.624Z,23.95
2023-09-30T13:41:57.836Z,23.79
2023-09-30T13:42:57.778Z,23.10
2023-09-30T13:43:57.850Z,23.88
2023-09-30T13:44:57.945Z,24.60
2023-09-30T13:45:58.050Z,25.39
2023-09-30T13:46:58.105Z,25.87
2023-09-30T13:47:58.209Z,25.99
2023-09-30T13:48:58.548Z,25.60
2023-09-30T13:49:58.344Z,25.65
2023-09-30T13:50:58.384Z,25.20
2023-09-30T13:51:58.528Z,25.05
2023-09-30T13:52:58.555Z,24.87
2023-09-30T13:53:58.624Z,24.99
2023-09-30T13:54:58.741Z,25.43
2023-09-30T13:55:58.793Z,24.96
2023-09-30T13:56:58.869Z,24.81
2023-09-30T13:57:58.966Z,24.93
2023-09-30T13:58:59.257Z,25.51
2023-09-30T13:59:59.099Z,25.67
2023-09-30T14:00:59.258Z,25.20
2023-09-30T14:01:59.261Z,23.98
2023-09-30T14:02:59.373Z,23.90
2023-09-30T14:03:59.616Z,23.27
2023-09-30T14:04:59.573Z,22.28
2023-09-30T14:05:59.604Z,21.07
2023-09-30T14:06:59.701Z,20.62
2023-09-30T14:07:59.762Z,20.03
2023-09-30T14:09:00.066Z,19.81
2023-09-30T14:09:59.984Z,19.76
2023-09-30T14:11:00.034Z,19.73
2023-09-30T14:12:00.118Z,19.77
2023-09-30T14:13:00.306Z,19.80
2023-09-30T14:14:00.302Z,19.81
2023-09-30T14:15:00.420Z,19.78
2023-09-30T14:16:00.542Z,19.74
2023-09-30T14:17:00.568Z,19.71
2023-09-30T14:18:00.667Z,19.69
2023-09-30T14:19:01.097Z,19.69
2023-09-30T14:20:00.824Z,19.58
2023-09-30T14:21:00.913Z,19.48
2023-09-30T14:22:01.055Z,19.39
2023-09-30T14:23:01.071Z,19.37
2023-09-30T14:24:01.159Z,19.40
2023-09-30T14:25:01.314Z,19.36
2023-09-30T14:26:01.296Z,19.36
2023-09-30T14:27:01.377Z,19.37
2023-09-30T14:28:01.630Z,19.32
2023-09-30T14:29:01.521Z,19.21
2023-09-30T14:30:01.645Z,19.22
2023-09-30T14:31:01.737Z,19.22
2023-09-30T14:32:01.797Z,19.22
2023-09-30T14:33:01.934Z,19.21
2023-09-30T14:34:01.952Z,19.13
2023-09-30T14:35:02.060Z,19.11
2023-09-30T14:36:02.130Z,19.16
2023-09-30T14:37:02.243Z,19.18
2023-09-30T14:38:02.299Z,19.11
2023-09-30T14:39:13.924Z,19.18
2023-09-30T14:40:02.481Z,19.22
2023-09-30T14:41:02.557Z,19.25
2023-09-30T14:42:02.646Z,19.29
2023-09-30T14:43:02.768Z,19.31
2023-09-30T14:44:02.838Z,19.25
2023-09-30T14:45:02.846Z,19.22
2023-09-30T14:46:03.134Z,19.13
2023-09-30T14:47:03.205Z,19.13
2023-09-30T14:48:03.150Z,19.11
2023-09-30T14:49:03.330Z,19.08
2023-09-30T14:50:03.336Z,19.11
2023-09-30T14:51:03.355Z,19.16
2023-09-30T14:52:03.492Z,19.19
2023-09-30T14:53:03.544Z,19.16
2023-09-30T14:54:03.624Z,19.23
2023-09-30T14:55:03.748Z,19.25
2023-09-30T14:56:03.839Z,19.22
2023-09-30T14:57:03.880Z,19.21
2023-09-30T14:58:03.986Z,19.26
2023-09-30T14:59:04.095Z,19.31
2023-09-30T15:00:04.140Z,19.32
2023-09-30T15:01:04.322Z,19.29
2023-09-30T15:02:04.388Z,19.23
2023-09-30T15:03:04.426Z,19.19
2023-09-30T15:04:04.546Z,19.11
2023-09-30T15:05:04.556Z,19.11
2023-09-30T15:06:04.641Z,19.11
2023-09-30T15:07:04.720Z,19.07
2023-09-30T15:08:04.759Z,19.02
2023-09-30T15:09:04.845Z,18.98
2023-09-30T15:10:04.913Z,18.99
2023-09-30T15:11:05.106Z,19.06
2023-09-30T15:12:05.103Z,19.06
2023-09-30T15:13:05.229Z,19.07
2023-09-30T15:14:05.274Z,19.10
2023-09-30T15:15:05.337Z,19.06
2023-09-30T15:16:08.015Z,19.04
2023-09-30T15:17:05.565Z,19.04
2023-09-30T15:18:05.984Z,19.14
2023-09-30T15:19:05.655Z,19.22
2023-09-30T15:20:05.746Z,19.25
2023-09-30T15:21:05.818Z,19.36
2023-09-30T15:22:05.958Z,19.46
2023-09-30T15:23:05.976Z,19.40
2023-09-30T15:24:06.045Z,19.37
2023-09-30T15:25:06.148Z,19.40
2023-09-30T15:26:06.238Z,19.40
2023-09-30T15:27:06.338Z,19.40
2023-09-30T15:28:06.475Z,19.44
2023-09-30T15:29:06.464Z,19.46
2023-09-30T15:30:06.558Z,19.44
2023-09-30T15:31:06.737Z,19.36
2023-09-30T15:32:06.752Z,19.32
2023-09-30T15:33:06.835Z,19.29
2023-09-30T15:34:06.961Z,19.16
2023-09-30T15:35:06.993Z,19.10
2023-09-30T15:36:07.076Z,19.07
2023-09-30T15:37:07.256Z,19.04
2023-09-30T15:38:07.227Z,19.04
2023-09-30T15:39:07.308Z,19.06
2023-09-30T15:40:07.429Z,19.10
2023-09-30T15:41:07.449Z,19.10
2023-09-30T15:42:07.539Z,19.07
2023-09-30T15:43:07.650Z,19.02
2023-09-30T15:44:07.711Z,18.98
2023-09-30T15:45:07.779Z,18.88
2023-09-30T15:46:07.915Z,18.85
2023-09-30T15:47:08.033Z,18.84
2023-09-30T15:48:08.050Z,18.82
2023-09-30T15:49:08.076Z,18.78
2023-09-30T15:50:08.141Z,18.75
2023-09-30T15:51:08.224Z,18.70
2023-09-30T15:52:08.373Z,18.57
2023-09-30T15:53:08.393Z,18.48
2023-09-30T15:54:08.512Z,18.45
2023-09-30T15:55:08.614Z,18.42
2023-09-30T15:56:08.629Z,18.32
2023-09-30T15:57:08.715Z,18.21
2023-09-30T15:58:08.848Z,18.12
2023-09-30T15:59:08.899Z,18.07
2023-09-30T16:00:08.985Z,18.00
2023-09-30T16:01:09.053Z,17.95
2023-09-30T16:02:09.115Z,17.89
2023-09-30T16:03:09.311Z,17.84
2023-09-30T16:04:09.351Z,17.78
2023-09-30T16:05:09.344Z,17.71
2023-09-30T16:06:09.406Z,17.68
2023-09-30T16:07:09.513Z,17.64
2023-09-30T16:08:09.642Z,17.62
2023-09-30T16:09:09.648Z,17.56
2023-09-30T16:10:09.759Z,17.46
2023-09-30T16:11:09.807Z,17.41
2023-09-30T16:12:09.885Z,17.40
2023-09-30T16:13:10.127Z,17.36
2023-09-30T16:14:10.067Z,17.33
2023-09-30T16:15:10.155Z,17.23
2023-09-30T16:16:10.227Z,17.19
2023-09-30T16:17:10.351Z,17.14
2023-09-30T16:18:10.616Z,17.06
2023-09-30T16:19:10.540Z,17.01
2023-09-30T16:20:10.562Z,17.00
2023-09-30T16:21:10.627Z,16.98
2023-09-30T16:22:10.744Z,16.97
2023-09-30T16:23:10.845Z,16.93
2023-09-30T16:24:10.903Z,16.93
2023-09-30T16:25:11.049Z,16.89
2023-09-30T16:26:11.045Z,16.83
2023-09-30T16:27:11.161Z,16.79
2023-09-30T16:28:11.264Z,16.68
2023-09-30T16:29:11.294Z,16.64
2023-09-30T16:30:11.351Z,16.58
2023-09-30T16:31:11.513Z,16.52
2023-09-30T16:32:11.510Z,16.50
2023-09-30T16:33:11.569Z,16.46
2023-09-30T16:34:11.674Z,16.38
2023-09-30T16:35:11.798Z,16.31
2023-09-30T16:36:11.809Z,16.27
2023-09-30T16:37:11.907Z,16.21
2023-09-30T16:38:11.995Z,16.12
2023-09-30T16:39:12.084Z,16.07
2023-09-30T16:40:12.173Z,16.04
2023-09-30T16:41:12.205Z,15.97
2023-09-30T16:42:12.281Z,15.93
2023-09-30T16:43:12.405Z,15.89
2023-09-30T16:44:12.881Z,15.82
2023-09-30T16:45:12.517Z,15.78
2023-09-30T16:46:12.798Z,15.74
2023-09-30T16:47:12.671Z,15.68
2023-09-30T16:48:12.834Z,15.64
2023-09-30T16:49:12.903Z,15.59
2023-09-30T16:50:12.931Z,15.53
2023-09-30T16:51:12.973Z,15.47
2023-09-30T16:52:13.092Z,15.43
2023-09-30T16:53:13.134Z,15.36
2023-09-30T16:54:13.183Z,15.34
2023-09-30T16:55:13.298Z,15.28
2023-09-30T16:56:13.367Z,15.21
2023-09-30T16:57:13.444Z,15.17
2023-09-30T16:58:13.527Z,15.16
